sensor_id;sensor_type;location;lat;lon;timestamp;P1;durP1;ratioP1;P2;durP2;ratioP2
739;SDS011;354;42.694;23.336;2022-08-01T00:01:56;7.43;;;6.93;;
739;SDS011;354;42.694;23.336;2022-08-01T00:04:21;6.80;;;6.40;;
739;SDS011;354;42.694;23.336;2022-08-01T00:06:46;7.75;;;7.07;;
739;SDS011;354;42.694;23.336;2022-08-01T00:09:12;7.53;;;7.03;;
739;SDS011;354;42.694;23.336;2022-08-01T00:11:37;8.95;;;6.22;;
739;SDS011;354;42.694;23.336;2022-08-01T00:14:03;7.28;;;6.80;;
739;SDS011;354;42.694;23.336;2022-08-01T00:16:28;9.32;;;8.40;;
739;SDS011;354;42.694;23.336;2022-08-01T00:18:54;9.30;;;8.70;;
739;SDS011;354;42.694;23.336;2022-08-01T00:21:20;11.27;;;10.55;;
739;SDS011;354;42.694;23.336;2022-08-01T00:23:45;13.20;;;12.20;;
739;SDS011;354;42.694;23.336;2022-08-01T00:26:11;11.17;;;10.43;;
739;SDS011;354;42.694;23.336;2022-08-01T00:28:38;14.03;;;13.03;;
739;SDS011;354;42.694;23.336;2022-08-01T00:31:03;11.70;;;10.70;;
739;SDS011;354;42.694;23.336;2022-08-01T00:33:29;12.53;;;11.63;;
739;SDS011;354;42.694;23.336;2022-08-01T00:35:54;11.90;;;11.10;;
739;SDS011;354;42.694;23.336;2022-08-01T00:38:20;14.00;;;13.10;;
739;SDS011;354;42.694;23.336;2022-08-01T00:40:46;12.27;;;11.47;;
739;SDS011;354;42.694;23.336;2022-08-01T00:43:11;12.10;;;11.33;;
739;SDS011;354;42.694;23.336;2022-08-01T00:45:37;13.13;;;12.13;;
739;SDS011;354;42.694;23.336;2022-08-01T00:48:02;12.40;;;11.50;;
739;SDS011;354;42.694;23.336;2022-08-01T00:50:28;11.40;;;10.57;;
739;SDS011;354;42.694;23.336;2022-08-01T00:52:53;11.37;;;10.63;;
739;SDS011;354;42.694;23.336;2022-08-01T00:55:20;13.00;;;11.93;;
739;SDS011;354;42.694;23.336;2022-08-01T00:57:46;11.90;;;11.00;;
739;SDS011;354;42.694;23.336;2022-08-01T01:00:12;12.33;;;11.43;;
739;SDS011;354;42.694;23.336;2022-08-01T01:02:38;12.07;;;11.33;;
739;SDS011;354;42.694;23.336;2022-08-01T01:05:04;11.57;;;10.87;;
739;SDS011;354;42.694;23.336;2022-08-01T01:07:45;12.73;;;11.83;;
739;SDS011;354;42.694;23.336;2022-08-01T01:11:04;11.90;;;11.07;;
739;SDS011;354;42.694;23.336;2022-08-01T01:13:18;11.37;;;10.47;;
739;SDS011;354;42.694;23.336;2022-08-01T01:16:10;11.17;;;10.30;;
739;SDS011;354;42.694;23.336;2022-08-01T01:18:53;10.80;;;10.20;;
739;SDS011;354;42.694;23.336;2022-08-01T01:26:45;11.47;;;10.57;;
739;SDS011;354;42.694;23.336;2022-08-01T01:29:29;11.33;;;10.53;;
739;SDS011;354;42.694;23.336;2022-08-01T01:32:04;12.27;;;11.27;;
739;SDS011;354;42.694;23.336;2022-08-01T01:34:36;12.33;;;11.47;;
739;SDS011;354;42.694;23.336;2022-08-01T01:37:04;14.23;;;11.80;;
739;SDS011;354;42.694;23.336;2022-08-01T01:39:34;11.13;;;10.33;;
739;SDS011;354;42.694;23.336;2022-08-01T01:42:01;11.73;;;10.83;;
739;SDS011;354;42.694;23.336;2022-08-01T01:44:29;9.60;;;8.90;;
739;SDS011;354;42.694;23.336;2022-08-01T01:46:56;11.70;;;10.80;;
739;SDS011;354;42.694;23.336;2022-08-01T01:49:23;10.47;;;9.63;;
739;SDS011;354;42.694;23.336;2022-08-01T01:51:51;10.30;;;9.50;;
739;SDS011;354;42.694;23.336;2022-08-01T01:54:20;9.90;;;9.20;;
739;SDS011;354;42.694;23.336;2022-08-01T01:56:48;9.50;;;8.90;;
739;SDS011;354;42.694;23.336;2022-08-01T01:59:18;8.37;;;7.87;;
739;SDS011;354;42.694;23.336;2022-08-01T02:01:50;9.87;;;9.17;;
739;SDS011;354;42.694;23.336;2022-08-01T02:04:17;7.93;;;7.37;;
739;SDS011;354;42.694;23.336;2022-08-01T02:06:45;8.33;;;7.73;;
739;SDS011;354;42.694;23.336;2022-08-01T02:09:14;8.43;;;7.90;;
739;SDS011;354;42.694;23.336;2022-08-01T02:11:42;8.40;;;7.73;;
739;SDS011;354;42.694;23.336;2022-08-01T02:14:10;8.10;;;7.63;;
739;SDS011;354;42.694;23.336;2022-08-01T02:16:36;9.10;;;8.33;;
739;SDS011;354;42.694;23.336;2022-08-01T02:19:06;7.23;;;6.70;;
739;SDS011;354;42.694;23.336;2022-08-01T02:21:35;9.37;;;8.67;;
739;SDS011;354;42.694;23.336;2022-08-01T02:24:09;8.27;;;7.67;;
739;SDS011;354;42.694;23.336;2022-08-01T02:26:42;7.83;;;7.40;;
739;SDS011;354;42.694;23.336;2022-08-01T02:29:14;7.83;;;7.43;;
739;SDS011;354;42.694;23.336;2022-08-01T02:31:46;9.10;;;8.30;;
739;SDS011;354;42.694;23.336;2022-08-01T02:34:15;9.27;;;8.67;;
739;SDS011;354;42.694;23.336;2022-08-01T02:36:43;8.67;;;8.07;;
739;SDS011;354;42.694;23.336;2022-08-01T02:39:11;9.50;;;8.80;;
739;SDS011;354;42.694;23.336;2022-08-01T02:41:41;9.27;;;8.57;;
739;SDS011;354;42.694;23.336;2022-08-01T02:44:09;9.03;;;8.43;;
739;SDS011;354;42.694;23.336;2022-08-01T02:46:40;9.37;;;8.50;;
739;SDS011;354;42.694;23.336;2022-08-01T02:49:10;9.20;;;8.60;;
739;SDS011;354;42.694;23.336;2022-08-01T02:51:36;10.50;;;9.80;;
739;SDS011;354;42.694;23.336;2022-08-01T02:54:05;9.57;;;8.87;;
739;SDS011;354;42.694;23.336;2022-08-01T02:56:33;11.17;;;10.27;;
739;SDS011;354;42.694;23.336;2022-08-01T02:59:04;9.50;;;8.80;;
739;SDS011;354;42.694;23.336;2022-08-01T03:01:33;10.73;;;9.83;;
739;SDS011;354;42.694;23.336;2022-08-01T03:04:00;11.27;;;10.27;;
739;SDS011;354;42.694;23.336;2022-08-01T03:06:28;10.17;;;9.57;;
739;SDS011;354;42.694;23.336;2022-08-01T03:08:54;10.20;;;9.23;;
739;SDS011;354;42.694;23.336;2022-08-01T03:11:22;9.70;;;8.93;;
739;SDS011;354;42.694;23.336;2022-08-01T03:13:51;10.20;;;9.37;;
739;SDS011;354;42.694;23.336;2022-08-01T03:16:18;9.70;;;8.90;;
739;SDS011;354;42.694;23.336;2022-08-01T03:18:46;10.17;;;9.27;;
739;SDS011;354;42.694;23.336;2022-08-01T03:21:13;10.13;;;9.23;;
739;SDS011;354;42.694;23.336;2022-08-01T03:23:40;10.50;;;9.70;;
739;SDS011;354;42.694;23.336;2022-08-01T03:26:06;10.10;;;9.40;;
739;SDS011;354;42.694;23.336;2022-08-01T03:28:33;11.97;;;10.60;;
739;SDS011;354;42.694;23.336;2022-08-01T03:30:58;10.13;;;9.43;;
739;SDS011;354;42.694;23.336;2022-08-01T03:33:25;9.43;;;8.83;;
739;SDS011;354;42.694;23.336;2022-08-01T03:35:52;10.37;;;9.47;;
739;SDS011;354;42.694;23.336;2022-08-01T03:38:21;11.07;;;10.10;;
739;SDS011;354;42.694;23.336;2022-08-01T03:40:52;9.27;;;8.67;;
739;SDS011;354;42.694;23.336;2022-08-01T03:43:26;10.30;;;9.53;;
739;SDS011;354;42.694;23.336;2022-08-01T03:46:05;9.53;;;8.70;;
739;SDS011;354;42.694;23.336;2022-08-01T03:48:33;9.80;;;9.20;;
739;SDS011;354;42.694;23.336;2022-08-01T03:51:03;10.43;;;9.73;;
739;SDS011;354;42.694;23.336;2022-08-01T03:53:30;9.93;;;9.13;;
739;SDS011;354;42.694;23.336;2022-08-01T03:55:58;10.73;;;9.80;;
739;SDS011;354;42.694;23.336;2022-08-01T03:58:26;11.37;;;10.47;;
739;SDS011;354;42.694;23.336;2022-08-01T04:00:52;10.77;;;10.07;;
739;SDS011;354;42.694;23.336;2022-08-01T04:03:19;11.90;;;10.57;;
739;SDS011;354;42.694;23.336;2022-08-01T04:05:44;11.07;;;10.07;;
739;SDS011;354;42.694;23.336;2022-08-01T04:08:10;11.93;;;10.93;;
739;SDS011;354;42.694;23.336;2022-08-01T04:10:36;12.10;;;10.87;;
739;SDS011;354;42.694;23.336;2022-08-01T04:13:02;12.60;;;11.60;;
739;SDS011;354;42.694;23.336;2022-08-01T04:15:28;12.27;;;11.30;;
739;SDS011;354;42.694;23.336;2022-08-01T04:17:53;11.97;;;10.87;;
739;SDS011;354;42.694;23.336;2022-08-01T04:20:19;12.93;;;11.90;;
739;SDS011;354;42.694;23.336;2022-08-01T04:22:45;12.77;;;11.67;;
739;SDS011;354;42.694;23.336;2022-08-01T04:25:12;12.70;;;11.60;;
739;SDS011;354;42.694;23.336;2022-08-01T04:27:45;11.37;;;10.27;;
739;SDS011;354;42.694;23.336;2022-08-01T04:30:13;12.73;;;11.57;;
739;SDS011;354;42.694;23.336;2022-08-01T04:32:41;11.30;;;10.30;;
739;SDS011;354;42.694;23.336;2022-08-01T04:35:10;12.98;;;11.82;;
739;SDS011;354;42.694;23.336;2022-08-01T04:37:41;12.10;;;10.90;;
739;SDS011;354;42.694;23.336;2022-08-01T04:40:09;11.70;;;10.60;;
739;SDS011;354;42.694;23.336;2022-08-01T04:42:36;11.00;;;10.00;;
739;SDS011;354;42.694;23.336;2022-08-01T04:45:01;10.88;;;9.85;;
739;SDS011;354;42.694;23.336;2022-08-01T04:47:27;11.60;;;10.60;;
739;SDS011;354;42.694;23.336;2022-08-01T04:49:55;11.30;;;10.30;;
739;SDS011;354;42.694;23.336;2022-08-01T04:52:21;11.50;;;10.25;;
739;SDS011;354;42.694;23.336;2022-08-01T04:54:47;11.43;;;10.32;;
739;SDS011;354;42.694;23.336;2022-08-01T04:57:12;11.30;;;9.98;;
739;SDS011;354;42.694;23.336;2022-08-01T04:59:38;12.32;;;11.20;;
739;SDS011;354;42.694;23.336;2022-08-01T05:02:11;10.93;;;9.85;;
739;SDS011;354;42.694;23.336;2022-08-01T05:04:41;13.15;;;10.38;;
739;SDS011;354;42.694;23.336;2022-08-01T05:07:08;12.18;;;10.90;;
739;SDS011;354;42.694;23.336;2022-08-01T05:09:34;11.68;;;10.50;;
739;SDS011;354;42.694;23.336;2022-08-01T05:12:04;12.40;;;10.73;;
739;SDS011;354;42.694;23.336;2022-08-01T05:14:31;12.38;;;10.10;;
739;SDS011;354;42.694;23.336;2022-08-01T05:17:00;11.57;;;9.45;;
739;SDS011;354;42.694;23.336;2022-08-01T05:19:35;12.02;;;10.10;;
739;SDS011;354;42.694;23.336;2022-08-01T05:22:02;9.10;;;8.30;;
739;SDS011;354;42.694;23.336;2022-08-01T05:24:32;9.68;;;8.90;;
739;SDS011;354;42.694;23.336;2022-08-01T05:26:58;9.25;;;8.43;;
739;SDS011;354;42.694;23.336;2022-08-01T05:29:24;9.55;;;8.50;;
739;SDS011;354;42.694;23.336;2022-08-01T05:31:50;9.00;;;8.30;;
739;SDS011;354;42.694;23.336;2022-08-01T05:34:16;8.55;;;7.72;;
739;SDS011;354;42.694;23.336;2022-08-01T05:36:42;8.27;;;7.47;;
739;SDS011;354;42.694;23.336;2022-08-01T05:39:07;8.90;;;8.10;;
739;SDS011;354;42.694;23.336;2022-08-01T05:41:33;9.20;;;8.43;;
739;SDS011;354;42.694;23.336;2022-08-01T05:43:58;9.02;;;8.20;;
739;SDS011;354;42.694;23.336;2022-08-01T05:46:24;8.80;;;7.95;;
739;SDS011;354;42.694;23.336;2022-08-01T05:48:49;9.27;;;8.32;;
739;SDS011;354;42.694;23.336;2022-08-01T05:51:15;7.93;;;7.22;;
739;SDS011;354;42.694;23.336;2022-08-01T05:53:40;7.88;;;6.88;;
739;SDS011;354;42.694;23.336;2022-08-01T05:56:05;7.93;;;7.20;;
739;SDS011;354;42.694;23.336;2022-08-01T05:58:31;8.45;;;7.85;;
739;SDS011;354;42.694;23.336;2022-08-01T06:00:57;7.90;;;6.70;;
739;SDS011;354;42.694;23.336;2022-08-01T06:03:22;7.43;;;6.88;;
739;SDS011;354;42.694;23.336;2022-08-01T06:05:48;7.97;;;7.25;;
739;SDS011;354;42.694;23.336;2022-08-01T06:08:13;7.43;;;6.82;;
739;SDS011;354;42.694;23.336;2022-08-01T06:10:39;7.43;;;6.78;;
739;SDS011;354;42.694;23.336;2022-08-01T06:13:04;7.70;;;7.07;;
739;SDS011;354;42.694;23.336;2022-08-01T06:15:30;7.45;;;6.85;;
739;SDS011;354;42.694;23.336;2022-08-01T06:17:57;7.55;;;6.80;;
739;SDS011;354;42.694;23.336;2022-08-01T06:20:22;7.28;;;6.78;;
739;SDS011;354;42.694;23.336;2022-08-01T06:22:48;8.15;;;7.35;;
739;SDS011;354;42.694;23.336;2022-08-01T06:25:13;7.18;;;6.60;;
739;SDS011;354;42.694;23.336;2022-08-01T06:27:39;6.80;;;6.38;;
739;SDS011;354;42.694;23.336;2022-08-01T06:30:04;6.68;;;6.07;;
739;SDS011;354;42.694;23.336;2022-08-01T06:32:32;7.53;;;6.95;;
739;SDS011;354;42.694;23.336;2022-08-01T06:34:58;6.78;;;6.20;;
739;SDS011;354;42.694;23.336;2022-08-01T06:37:23;6.78;;;6.38;;
739;SDS011;354;42.694;23.336;2022-08-01T06:39:49;6.57;;;6.13;;
739;SDS011;354;42.694;23.336;2022-08-01T06:42:14;6.88;;;6.25;;
739;SDS011;354;42.694;23.336;2022-08-01T06:44:40;6.85;;;6.30;;
739;SDS011;354;42.694;23.336;2022-08-01T06:47:06;6.55;;;5.95;;
739;SDS011;354;42.694;23.336;2022-08-01T06:49:32;6.95;;;6.55;;
739;SDS011;354;42.694;23.336;2022-08-01T06:51:57;6.88;;;6.38;;
739;SDS011;354;42.694;23.336;2022-08-01T06:54:22;7.15;;;6.65;;
739;SDS011;354;42.694;23.336;2022-08-01T06:56:48;8.70;;;8.07;;
739;SDS011;354;42.694;23.336;2022-08-01T06:59:13;6.95;;;6.35;;
739;SDS011;354;42.694;23.336;2022-08-01T07:01:39;9.40;;;8.52;;
739;SDS011;354;42.694;23.336;2022-08-01T07:04:04;7.00;;;6.43;;
739;SDS011;354;42.694;23.336;2022-08-01T07:06:30;6.40;;;5.90;;
739;SDS011;354;42.694;23.336;2022-08-01T07:08:55;6.60;;;6.20;;
739;SDS011;354;42.694;23.336;2022-08-01T07:11:21;8.32;;;7.68;;
739;SDS011;354;42.694;23.336;2022-08-01T07:13:48;7.00;;;6.38;;
739;SDS011;354;42.694;23.336;2022-08-01T07:16:14;8.10;;;7.60;;
739;SDS011;354;42.694;23.336;2022-08-01T07:18:40;7.00;;;6.50;;
739;SDS011;354;42.694;23.336;2022-08-01T07:21:06;6.95;;;6.30;;
739;SDS011;354;42.694;23.336;2022-08-01T07:23:33;8.68;;;6.28;;
739;SDS011;354;42.694;23.336;2022-08-01T07:25:59;6.28;;;5.97;;
739;SDS011;354;42.694;23.336;2022-08-01T07:28:26;7.78;;;7.07;;
739;SDS011;354;42.694;23.336;2022-08-01T07:30:53;7.43;;;6.78;;
739;SDS011;354;42.694;23.336;2022-08-01T07:33:18;7.28;;;6.63;;
739;SDS011;354;42.694;23.336;2022-08-01T07:35:44;7.72;;;7.15;;
739;SDS011;354;42.694;23.336;2022-08-01T07:38:09;6.75;;;6.38;;
739;SDS011;354;42.694;23.336;2022-08-01T07:40:35;6.85;;;6.40;;
739;SDS011;354;42.694;23.336;2022-08-01T07:43:00;7.60;;;7.20;;
739;SDS011;354;42.694;23.336;2022-08-01T07:45:26;6.80;;;6.20;;
739;SDS011;354;42.694;23.336;2022-08-01T07:47:51;11.18;;;10.40;;
739;SDS011;354;42.694;23.336;2022-08-01T07:50:17;7.20;;;6.60;;
739;SDS011;354;42.694;23.336;2022-08-01T07:52:43;7.45;;;7.00;;
739;SDS011;354;42.694;23.336;2022-08-01T07:55:09;7.22;;;6.72;;
739;SDS011;354;42.694;23.336;2022-08-01T07:57:36;7.20;;;6.70;;
739;SDS011;354;42.694;23.336;2022-08-01T08:00:03;7.97;;;7.28;;
739;SDS011;354;42.694;23.336;2022-08-01T08:02:31;6.90;;;6.30;;
739;SDS011;354;42.694;23.336;2022-08-01T08:04:56;6.80;;;6.30;;
739;SDS011;354;42.694;23.336;2022-08-01T08:07:22;7.22;;;6.72;;
739;SDS011;354;42.694;23.336;2022-08-01T08:09:47;7.18;;;6.65;;
739;SDS011;354;42.694;23.336;2022-08-01T08:12:13;6.53;;;6.20;;
739;SDS011;354;42.694;23.336;2022-08-01T08:14:38;7.82;;;7.05;;
739;SDS011;354;42.694;23.336;2022-08-01T08:17:04;7.13;;;6.72;;
739;SDS011;354;42.694;23.336;2022-08-01T08:19:30;7.85;;;6.45;;
739;SDS011;354;42.694;23.336;2022-08-01T08:21:58;7.50;;;7.00;;
739;SDS011;354;42.694;23.336;2022-08-01T08:24:24;7.30;;;6.80;;
739;SDS011;354;42.694;23.336;2022-08-01T08:26:51;7.43;;;7.03;;
739;SDS011;354;42.694;23.336;2022-08-01T08:29:19;7.20;;;6.68;;
739;SDS011;354;42.694;23.336;2022-08-01T08:31:45;7.00;;;6.60;;
739;SDS011;354;42.694;23.336;2022-08-01T08:34:10;7.03;;;6.40;;
739;SDS011;354;42.694;23.336;2022-08-01T08:36:36;9.00;;;8.32;;
739;SDS011;354;42.694;23.336;2022-08-01T08:39:02;6.80;;;6.32;;
739;SDS011;354;42.694;23.336;2022-08-01T08:41:34;7.50;;;6.90;;
739;SDS011;354;42.694;23.336;2022-08-01T08:44:01;11.25;;;10.45;;
739;SDS011;354;42.694;23.336;2022-08-01T08:46:31;7.55;;;7.03;;
739;SDS011;354;42.694;23.336;2022-08-01T08:48:58;9.45;;;6.82;;
739;SDS011;354;42.694;23.336;2022-08-01T08:51:26;7.28;;;6.70;;
739;SDS011;354;42.694;23.336;2022-08-01T08:53:55;6.70;;;6.28;;
739;SDS011;354;42.694;23.336;2022-08-01T08:56:21;7.07;;;6.38;;
739;SDS011;354;42.694;23.336;2022-08-01T08:58:49;7.05;;;6.65;;
739;SDS011;354;42.694;23.336;2022-08-01T09:01:16;6.63;;;6.13;;
739;SDS011;354;42.694;23.336;2022-08-01T09:03:42;7.10;;;6.40;;
739;SDS011;354;42.694;23.336;2022-08-01T09:06:09;6.88;;;6.25;;
739;SDS011;354;42.694;23.336;2022-08-01T09:08:36;6.90;;;6.25;;
739;SDS011;354;42.694;23.336;2022-08-01T09:11:02;6.68;;;6.20;;
739;SDS011;354;42.694;23.336;2022-08-01T09:13:28;7.60;;;6.85;;
739;SDS011;354;42.694;23.336;2022-08-01T09:15:54;5.97;;;5.68;;
739;SDS011;354;42.694;23.336;2022-08-01T09:18:29;7.03;;;6.50;;
739;SDS011;354;42.694;23.336;2022-08-01T09:26:08;6.50;;;6.10;;
739;SDS011;354;42.694;23.336;2022-08-01T09:28:34;7.35;;;6.85;;
739;SDS011;354;42.694;23.336;2022-08-01T09:31:07;8.35;;;6.07;;
739;SDS011;354;42.694;23.336;2022-08-01T09:33:47;5.82;;;5.45;;
739;SDS011;354;42.694;23.336;2022-08-01T09:36:15;6.50;;;5.78;;
739;SDS011;354;42.694;23.336;2022-08-01T09:38:41;6.85;;;6.38;;
739;SDS011;354;42.694;23.336;2022-08-01T09:41:07;5.78;;;5.47;;
739;SDS011;354;42.694;23.336;2022-08-01T09:43:32;7.28;;;6.78;;
739;SDS011;354;42.694;23.336;2022-08-01T09:45:59;7.47;;;6.90;;
739;SDS011;354;42.694;23.336;2022-08-01T09:48:29;7.00;;;6.45;;
739;SDS011;354;42.694;23.336;2022-08-01T09:50:54;7.72;;;7.20;;
739;SDS011;354;42.694;23.336;2022-08-01T09:53:21;6.80;;;6.30;;
739;SDS011;354;42.694;23.336;2022-08-01T09:55:46;7.53;;;7.03;;
739;SDS011;354;42.694;23.336;2022-08-01T09:58:12;6.78;;;6.10;;
739;SDS011;354;42.694;23.336;2022-08-01T10:00:38;6.97;;;6.35;;
739;SDS011;354;42.694;23.336;2022-08-01T10:03:20;6.85;;;6.45;;
739;SDS011;354;42.694;23.336;2022-08-01T10:05:47;6.43;;;6.03;;
739;SDS011;354;42.694;23.336;2022-08-01T10:08:13;6.68;;;6.13;;
739;SDS011;354;42.694;23.336;2022-08-01T10:10:39;6.97;;;6.20;;
739;SDS011;354;42.694;23.336;2022-08-01T10:13:04;7.90;;;7.40;;
739;SDS011;354;42.694;23.336;2022-08-01T10:15:31;7.82;;;6.43;;
739;SDS011;354;42.694;23.336;2022-08-01T10:17:58;6.50;;;6.00;;
739;SDS011;354;42.694;23.336;2022-08-01T10:20:29;5.95;;;5.57;;
739;SDS011;354;42.694;23.336;2022-08-01T10:22:58;6.82;;;6.07;;
739;SDS011;354;42.694;23.336;2022-08-01T10:25:26;7.53;;;7.03;;
739;SDS011;354;42.694;23.336;2022-08-01T10:27:53;5.90;;;5.57;;
739;SDS011;354;42.694;23.336;2022-08-01T10:30:22;6.20;;;5.70;;
739;SDS011;354;42.694;23.336;2022-08-01T10:32:49;6.35;;;5.95;;
739;SDS011;354;42.694;23.336;2022-08-01T10:35:17;6.53;;;6.13;;
739;SDS011;354;42.694;23.336;2022-08-01T10:37:44;7.15;;;6.63;;
739;SDS011;354;42.694;23.336;2022-08-01T10:40:16;6.57;;;6.18;;
739;SDS011;354;42.694;23.336;2022-08-01T10:42:42;10.05;;;9.35;;
739;SDS011;354;42.694;23.336;2022-08-01T10:45:09;6.20;;;5.70;;
739;SDS011;354;42.694;23.336;2022-08-01T10:47:38;6.90;;;6.35;;
739;SDS011;354;42.694;23.336;2022-08-01T10:50:31;6.00;;;5.70;;
739;SDS011;354;42.694;23.336;2022-08-01T10:53:19;7.55;;;5.72;;
739;SDS011;354;42.694;23.336;2022-08-01T10:58:32;5.97;;;5.40;;
739;SDS011;354;42.694;23.336;2022-08-01T11:03:40;6.18;;;5.78;;
739;SDS011;354;42.694;23.336;2022-08-01T11:06:07;6.50;;;6.03;;
739;SDS011;354;42.694;23.336;2022-08-01T11:08:41;6.43;;;6.03;;
739;SDS011;354;42.694;23.336;2022-08-01T11:11:15;6.18;;;5.78;;
739;SDS011;354;42.694;23.336;2022-08-01T11:16:38;6.68;;;6.18;;
739;SDS011;354;42.694;23.336;2022-08-01T11:19:06;7.05;;;6.55;;
739;SDS011;354;42.694;23.336;2022-08-01T11:25:02;6.75;;;6.18;;
739;SDS011;354;42.694;23.336;2022-08-01T11:27:23;6.55;;;5.95;;
739;SDS011;354;42.694;23.336;2022-08-01T11:32:45;7.00;;;6.50;;
739;SDS011;354;42.694;23.336;2022-08-01T11:35:11;6.22;;;5.93;;
739;SDS011;354;42.694;23.336;2022-08-01T11:37:37;7.90;;;6.90;;
739;SDS011;354;42.694;23.336;2022-08-01T11:42:43;9.15;;;6.63;;
739;SDS011;354;42.694;23.336;2022-08-01T11:45:08;7.53;;;7.03;;
739;SDS011;354;42.694;23.336;2022-08-01T11:47:44;5.80;;;5.50;;
739;SDS011;354;42.694;23.336;2022-08-01T11:50:33;6.05;;;5.70;;
739;SDS011;354;42.694;23.336;2022-08-01T11:53:01;6.85;;;6.35;;
739;SDS011;354;42.694;23.336;2022-08-01T11:55:28;6.20;;;5.80;;
739;SDS011;354;42.694;23.336;2022-08-01T11:58:01;6.30;;;5.97;;
739;SDS011;354;42.694;23.336;2022-08-01T12:00:31;7.20;;;6.80;;
739;SDS011;354;42.694;23.336;2022-08-01T12:02:58;6.28;;;5.88;;
739;SDS011;354;42.694;23.336;2022-08-01T12:05:26;6.53;;;6.13;;
739;SDS011;354;42.694;23.336;2022-08-01T12:07:53;6.78;;;6.38;;
739;SDS011;354;42.694;23.336;2022-08-01T12:10:21;6.70;;;6.10;;
739;SDS011;354;42.694;23.336;2022-08-01T12:12:49;6.50;;;6.07;;
739;SDS011;354;42.694;23.336;2022-08-01T12:15:16;6.90;;;6.50;;
739;SDS011;354;42.694;23.336;2022-08-01T12:17:49;7.13;;;6.50;;
739;SDS011;354;42.694;23.336;2022-08-01T12:20:21;6.93;;;6.43;;
739;SDS011;354;42.694;23.336;2022-08-01T12:22:47;7.15;;;6.65;;
739;SDS011;354;42.694;23.336;2022-08-01T12:25:19;7.30;;;6.70;;
739;SDS011;354;42.694;23.336;2022-08-01T12:27:45;6.40;;;6.00;;
739;SDS011;354;42.694;23.336;2022-08-01T12:30:18;6.90;;;6.50;;
739;SDS011;354;42.694;23.336;2022-08-01T12:32:50;6.05;;;5.75;;
739;SDS011;354;42.694;23.336;2022-08-01T12:35:18;6.80;;;6.18;;
739;SDS011;354;42.694;23.336;2022-08-01T12:37:51;6.97;;;6.50;;
739;SDS011;354;42.694;23.336;2022-08-01T12:40:29;7.28;;;6.78;;
739;SDS011;354;42.694;23.336;2022-08-01T12:42:58;6.80;;;6.30;;
739;SDS011;354;42.694;23.336;2022-08-01T12:45:25;6.82;;;6.43;;
739;SDS011;354;42.694;23.336;2022-08-01T12:47:53;7.28;;;6.80;;
739;SDS011;354;42.694;23.336;2022-08-01T12:50:20;6.25;;;5.95;;
739;SDS011;354;42.694;23.336;2022-08-01T12:52:47;6.47;;;6.07;;
739;SDS011;354;42.694;23.336;2022-08-01T12:55:17;6.45;;;6.00;;
739;SDS011;354;42.694;23.336;2022-08-01T12:57:45;7.70;;;7.15;;
739;SDS011;354;42.694;23.336;2022-08-01T13:00:23;7.45;;;6.78;;
739;SDS011;354;42.694;23.336;2022-08-01T13:03:01;7.22;;;6.55;;
739;SDS011;354;42.694;23.336;2022-08-01T13:05:40;7.45;;;6.95;;
739;SDS011;354;42.694;23.336;2022-08-01T13:08:09;6.32;;;6.03;;
739;SDS011;354;42.694;23.336;2022-08-01T13:10:36;7.00;;;6.45;;
739;SDS011;354;42.694;23.336;2022-08-01T13:13:01;6.47;;;6.07;;
739;SDS011;354;42.694;23.336;2022-08-01T13:15:32;6.75;;;6.15;;
739;SDS011;354;42.694;23.336;2022-08-01T13:18:00;6.10;;;5.70;;
739;SDS011;354;42.694;23.336;2022-08-01T13:20:46;8.15;;;6.28;;
739;SDS011;354;42.694;23.336;2022-08-01T13:23:12;5.63;;;5.32;;
739;SDS011;354;42.694;23.336;2022-08-01T13:25:53;6.38;;;5.97;;
739;SDS011;354;42.694;23.336;2022-08-01T13:28:23;6.20;;;5.90;;
739;SDS011;354;42.694;23.336;2022-08-01T13:31:08;6.60;;;6.00;;
739;SDS011;354;42.694;23.336;2022-08-01T13:33:45;5.32;;;4.97;;
739;SDS011;354;42.694;23.336;2022-08-01T13:36:12;5.75;;;5.22;;
739;SDS011;354;42.694;23.336;2022-08-01T13:38:39;7.75;;;6.25;;
739;SDS011;354;42.694;23.336;2022-08-01T13:41:24;10.02;;;9.13;;
739;SDS011;354;42.694;23.336;2022-08-01T13:43:49;7.13;;;6.63;;
739;SDS011;354;42.694;23.336;2022-08-01T13:46:15;6.60;;;6.20;;
739;SDS011;354;42.694;23.336;2022-08-01T13:48:41;6.07;;;5.68;;
739;SDS011;354;42.694;23.336;2022-08-01T13:51:07;6.45;;;6.13;;
739;SDS011;354;42.694;23.336;2022-08-01T13:53:32;6.85;;;6.30;;
739;SDS011;354;42.694;23.336;2022-08-01T13:55:58;5.97;;;5.57;;
739;SDS011;354;42.694;23.336;2022-08-01T13:58:23;7.10;;;6.70;;
739;SDS011;354;42.694;23.336;2022-08-01T14:00:49;6.68;;;6.07;;
739;SDS011;354;42.694;23.336;2022-08-01T14:03:14;6.13;;;5.82;;
739;SDS011;354;42.694;23.336;2022-08-01T14:05:41;7.45;;;6.93;;
739;SDS011;354;42.694;23.336;2022-08-01T14:08:07;6.45;;;6.05;;
739;SDS011;354;42.694;23.336;2022-08-01T14:10:33;6.38;;;5.82;;
739;SDS011;354;42.694;23.336;2022-08-01T14:12:59;7.05;;;6.50;;
739;SDS011;354;42.694;23.336;2022-08-01T14:15:25;6.80;;;6.30;;
739;SDS011;354;42.694;23.336;2022-08-01T14:17:50;7.18;;;6.53;;
739;SDS011;354;42.694;23.336;2022-08-01T14:20:16;6.88;;;6.38;;
739;SDS011;354;42.694;23.336;2022-08-01T14:22:44;6.28;;;5.88;;
739;SDS011;354;42.694;23.336;2022-08-01T14:25:10;6.32;;;5.82;;
739;SDS011;354;42.694;23.336;2022-08-01T14:27:36;6.25;;;5.95;;
739;SDS011;354;42.694;23.336;2022-08-01T14:30:02;6.22;;;5.72;;
739;SDS011;354;42.694;23.336;2022-08-01T14:32:28;6.20;;;5.78;;
739;SDS011;354;42.694;23.336;2022-08-01T14:34:54;6.20;;;5.90;;
739;SDS011;354;42.694;23.336;2022-08-01T14:37:21;6.95;;;6.50;;
739;SDS011;354;42.694;23.336;2022-08-01T14:39:47;6.57;;;6.00;;
739;SDS011;354;42.694;23.336;2022-08-01T14:42:12;6.05;;;5.75;;
739;SDS011;354;42.694;23.336;2022-08-01T14:44:38;6.00;;;5.60;;
739;SDS011;354;42.694;23.336;2022-08-01T14:47:03;6.53;;;6.03;;
739;SDS011;354;42.694;23.336;2022-08-01T14:49:29;6.95;;;6.50;;
739;SDS011;354;42.694;23.336;2022-08-01T14:51:54;6.22;;;5.72;;
739;SDS011;354;42.694;23.336;2022-08-01T14:54:20;7.82;;;7.43;;
739;SDS011;354;42.694;23.336;2022-08-01T14:56:45;6.40;;;5.95;;
739;SDS011;354;42.694;23.336;2022-08-01T14:59:10;6.80;;;6.40;;
739;SDS011;354;42.694;23.336;2022-08-01T15:01:36;6.20;;;5.80;;
739;SDS011;354;42.694;23.336;2022-08-01T15:04:01;6.47;;;6.15;;
739;SDS011;354;42.694;23.336;2022-08-01T15:06:27;6.25;;;5.93;;
739;SDS011;354;42.694;23.336;2022-08-01T15:08:53;7.10;;;6.70;;
739;SDS011;354;42.694;23.336;2022-08-01T15:11:18;6.03;;;5.63;;
739;SDS011;354;42.694;23.336;2022-08-01T15:13:43;6.00;;;5.28;;
739;SDS011;354;42.694;23.336;2022-08-01T15:16:09;6.03;;;5.78;;
739;SDS011;354;42.694;23.336;2022-08-01T15:18:35;5.85;;;5.45;;
739;SDS011;354;42.694;23.336;2022-08-01T15:21:00;5.72;;;5.43;;
739;SDS011;354;42.694;23.336;2022-08-01T15:23:26;6.18;;;5.78;;
739;SDS011;354;42.694;23.336;2022-08-01T15:25:51;6.05;;;5.60;;
739;SDS011;354;42.694;23.336;2022-08-01T15:28:16;5.88;;;5.57;;
739;SDS011;354;42.694;23.336;2022-08-01T15:30:42;5.45;;;5.05;;
739;SDS011;354;42.694;23.336;2022-08-01T15:33:07;5.65;;;5.35;;
739;SDS011;354;42.694;23.336;2022-08-01T15:35:33;6.75;;;6.32;;
739;SDS011;354;42.694;23.336;2022-08-01T15:37:58;8.63;;;7.95;;
739;SDS011;354;42.694;23.336;2022-08-01T15:40:24;6.20;;;5.65;;
739;SDS011;354;42.694;23.336;2022-08-01T15:42:50;5.95;;;5.55;;
739;SDS011;354;42.694;23.336;2022-08-01T15:45:17;9.23;;;8.52;;
739;SDS011;354;42.694;23.336;2022-08-01T15:47:44;5.90;;;5.50;;
739;SDS011;354;42.694;23.336;2022-08-01T15:50:09;6.20;;;5.80;;
739;SDS011;354;42.694;23.336;2022-08-01T15:52:35;6.30;;;6.00;;
739;SDS011;354;42.694;23.336;2022-08-01T15:55:01;6.10;;;5.63;;
739;SDS011;354;42.694;23.336;2022-08-01T15:57:26;6.45;;;6.00;;